Time;durP1;ratioP1;P1;durP2;ratioP2;P2;SDS_P1;SDS_P2;PMS_P1;PMS_P2;Temp;Humidity;BMP_temperature;BMP_pressure;BME280_temperature;BME280_humidity;BME280_pressure;Samples;Min_cycle;Max_cycle;Signal;HPM_P1;HPM_P2
2022/07/12 00:01:57;;;;;;;0.00;0.00;;;;;;;;;;5113610;28;20039;-86
2022/07/12 00:04:23;;;;;;;0.00;0.00;;;;;;;;;;5112600;28;20044;-87
2022/07/12 00:06:49;;;;;;;0.00;0.00;;;;;;;;;;5112127;28;20051;-87
2022/07/12 00:09:15;;;;;;;0.00;0.00;;;;;;;;;;5112510;28;20055;-88
2022/07/12 00:11:42;;;;;;;0.00;0.00;;;;;;;;;;5112147;28;20036;-88
2022/07/12 00:14:09;;;;;;;0.00;0.00;;;;;;;;;;5112502;28;20035;-88
2022/07/12 00:16:35;;;;;;;0.00;0.00;;;;;;;;;;5113391;28;20123;-87
2022/07/12 00:19:01;;;;;;;0.00;0.00;;;;;;;;;;5113617;28;20035;-88
2022/07/12 00:21:27;;;;;;;0.00;0.00;;;;;;;;;;5112065;28;20478;-88
2022/07/12 00:23:53;;;;;;;0.00;0.00;;;;;;;;;;5113669;28;20062;-88
2022/07/12 00:26:19;;;;;;;0.00;0.00;;;;;;;;;;5113166;28;20440;-88
2022/07/12 00:28:45;;;;;;;0.00;0.00;;;;;;;;;;5113656;28;20104;-89
2022/07/12 00:31:11;;;;;;;0.00;0.00;;;;;;;;;;5112111;28;20062;-87
2022/07/12 00:33:37;;;;;;;0.00;0.00;;;;;;;;;;5113210;28;20447;-87
2022/07/12 00:36:04;;;;;;;0.00;0.00;;;;;;;;;;5111910;28;20094;-89
2022/07/12 00:38:30;;;;;;;0.00;0.00;;;;;;;;;;5113271;28;20044;-86
2022/07/12 00:40:56;;;;;;;0.00;0.00;;;;;;;;;;5113219;28;20124;-88
2022/07/12 00:43:22;;;;;;;0.00;0.00;;;;;;;;;;5112051;28;20372;-88
2022/07/12 00:45:48;;;;;;;0.00;0.00;;;;;;;;;;5111785;28;20067;-87
2022/07/12 00:48:14;;;;;;;0.00;0.00;;;;;;;;;;5112134;28;20074;-88
2022/07/12 00:50:40;;;;;;;0.00;0.00;;;;;;;;;;5111837;28;20059;-88
2022/07/12 00:53:06;;;;;;;0.00;0.00;;;;;;;;;;5111737;28;20043;-88
2022/07/12 00:55:32;;;;;;;0.00;0.00;;;;;;;;;;5111883;28;20035;-87
2022/07/12 00:57:58;;;;;;;0.00;0.00;;;;;;;;;;5112103;28;20043;-87
2022/07/12 01:00:25;;;;;;;0.00;0.00;;;;;;;;;;5111680;28;20043;-87
2022/07/12 01:02:51;;;;;;;0.00;0.00;;;;;;;;;;5111545;28;20054;-87
2022/07/12 01:05:17;;;;;;;0.00;0.00;;;;;;;;;;5111980;28;20509;-87
2022/07/12 01:07:44;;;;;;;0.00;0.00;;;;;;;;;;5112950;28;20035;-88
2022/07/12 01:10:10;;;;;;;0.00;0.00;;;;;;;;;;5113201;28;20048;-88
2022/07/12 01:12:37;;;;;;;0.00;0.00;;;;;;;;;;5111651;28;20354;-88
2022/07/12 01:15:05;;;;;;;0.00;0.00;;;;;;;;;;5113087;28;20162;-87
2022/07/12 01:17:31;;;;;;;0.00;0.00;;;;;;;;;;5111387;28;20118;-88
2022/07/12 01:19:57;;;;;;;0.00;0.00;;;;;;;;;;5111941;28;20079;-88
2022/07/12 01:22:34;;;;;;;0.00;0.00;;;;;;;;;;5111464;28;20039;-88
2022/07/12 01:25:01;;;;;;;0.00;0.00;;;;;;;;;;5111720;28;20060;-89
2022/07/12 01:27:27;;;;;;;0.00;0.00;;;;;;;;;;5111432;28;20048;-88
2022/07/12 01:29:53;;;;;;;0.00;0.00;;;;;;;;;;5111363;28;20053;-88
2022/07/12 01:32:25;;;;;;;0.00;0.00;;;;;;;;;;5111263;28;20484;-87
2022/07/12 01:34:55;;;;;;;0.00;0.00;;;;;;;;;;5111776;28;20040;-88
2022/07/12 01:37:23;;;;;;;0.00;0.00;;;;;;;;;;5111256;28;20047;-88
2022/07/12 01:39:58;;;;;;;0.00;0.00;;;;;;;;;;5112618;28;20040;-88
2022/07/12 01:42:25;;;;;;;0.00;0.00;;;;;;;;;;5111167;28;20046;-87
2022/07/12 01:44:52;;;;;;;0.00;0.00;;;;;;;;;;5112903;28;20032;-88
2022/07/12 01:47:18;;;;;;;0.00;0.00;;;;;;;;;;5111270;28;20044;-87
2022/07/12 01:49:44;;;;;;;0.00;0.00;;;;;;;;;;5111894;28;20035;-88
2022/07/12 01:52:10;;;;;;;0.00;0.00;;;;;;;;;;5116062;28;20479;-87
2022/07/12 01:54:37;;;;;;;0.00;0.00;;;;;;;;;;5115041;28;20039;-86
2022/07/12 01:57:04;;;;;;;0.00;0.00;;;;;;;;;;5114697;28;20043;-88
2022/07/12 01:59:30;;;;;;;0.00;0.00;;;;;;;;;;5114684;28;20077;-88
2022/07/12 02:01:56;;;;;;;0.00;0.00;;;;;;;;;;5114440;28;20607;-87
2022/07/12 02:04:23;;;;;;;0.00;0.00;;;;;;;;;;5114868;28;20474;-87
2022/07/12 02:06:49;;;;;;;0.00;0.00;;;;;;;;;;5114647;28;20040;-88
2022/07/12 02:09:16;;;;;;;0.00;0.00;;;;;;;;;;5115079;28;20417;-87
2022/07/12 02:11:42;;;;;;;0.00;0.00;;;;;;;;;;5114514;28;20090;-87
2022/07/12 02:14:09;;;;;;;0.00;0.00;;;;;;;;;;5114710;28;20040;-88
2022/07/12 02:16:34;;;;;;;0.00;0.00;;;;;;;;;;5114391;28;20047;-89
2022/07/12 02:19:01;;;;;;;0.00;0.00;;;;;;;;;;5114932;28;20040;-87
2022/07/12 02:21:27;;;;;;;0.00;0.00;;;;;;;;;;5114601;28;20382;-86
2022/07/12 02:23:53;;;;;;;0.00;0.00;;;;;;;;;;5115479;28;20042;-87
2022/07/12 02:26:19;;;;;;;0.00;0.00;;;;;;;;;;5114125;28;20051;-88
2022/07/12 02:28:45;;;;;;;0.00;0.00;;;;;;;;;;5115623;27;20116;-87
2022/07/12 02:31:11;;;;;;;0.00;0.00;;;;;;;;;;5114300;28;20482;-87
2022/07/12 02:33:37;;;;;;;0.00;0.00;;;;;;;;;;5114131;28;20040;-87
2022/07/12 02:36:03;;;;;;;0.00;0.00;;;;;;;;;;5114458;28;20066;-87
2022/07/12 02:38:29;;;;;;;0.00;0.00;;;;;;;;;;5113864;28;20044;-89
2022/07/12 02:40:55;;;;;;;0.00;0.00;;;;;;;;;;5115217;28;20042;-88
2022/07/12 02:43:22;;;;;;;0.00;0.00;;;;;;;;;;5114094;28;20054;-86
2022/07/12 02:45:48;;;;;;;0.00;0.00;;;;;;;;;;5114212;28;20048;-87
2022/07/12 02:48:14;;;;;;;0.00;0.00;;;;;;;;;;5113768;28;20043;-87
2022/07/12 02:50:40;;;;;;;0.00;0.00;;;;;;;;;;5113834;28;20093;-86
2022/07/12 02:53:07;;;;;;;0.00;0.00;;;;;;;;;;5113635;28;20065;-88
2022/07/12 02:55:34;;;;;;;0.00;0.00;;;;;;;;;;5114011;28;20100;-87
2022/07/12 02:58:00;;;;;;;0.00;0.00;;;;;;;;;;5113459;28;20474;-88
2022/07/12 03:00:26;;;;;;;0.00;0.00;;;;;;;;;;5113742;28;20096;-90
2022/07/12 03:02:52;;;;;;;0.00;0.00;;;;;;;;;;5113668;28;20047;-88
2022/07/12 03:05:18;;;;;;;0.00;0.00;;;;;;;;;;5114809;28;20051;-89
2022/07/12 03:07:44;;;;;;;0.00;0.00;;;;;;;;;;5113173;28;20475;-88
2022/07/12 03:10:10;;;;;;;0.00;0.00;;;;;;;;;;5114944;28;20115;-87
2022/07/12 03:12:37;;;;;;;0.00;0.00;;;;;;;;;;5114454;27;20040;-88
2022/07/12 03:15:03;;;;;;;0.00;0.00;;;;;;;;;;5113539;28;20035;-90
2022/07/12 03:17:29;;;;;;;0.00;0.00;;;;;;;;;;5114414;27;20509;-86
2022/07/12 03:19:55;;;;;;;0.00;0.00;;;;;;;;;;5113094;28;20044;-85
2022/07/12 03:22:21;;;;;;;0.00;0.00;;;;;;;;;;5114439;28;20367;-86
2022/07/12 03:24:47;;;;;;;0.00;0.00;;;;;;;;;;5113291;28;20036;-88
2022/07/12 03:27:13;;;;;;;0.00;0.00;;;;;;;;;;5113065;28;20048;-87
2022/07/12 03:29:39;;;;;;;0.00;0.00;;;;;;;;;;5114546;28;20122;-86
2022/07/12 03:32:06;;;;;;;0.00;0.00;;;;;;;;;;5096036;28;20050;-87
2022/07/12 03:34:32;;;;;;;0.00;0.00;;;;;;;;;;5114314;28;20039;-88
2022/07/12 03:36:58;;;;;;;0.00;0.00;;;;;;;;;;5114247;28;20046;-89
2022/07/12 03:39:24;;;;;;;0.00;0.00;;;;;;;;;;5113282;28;20051;-89
2022/07/12 03:41:50;;;;;;;0.00;0.00;;;;;;;;;;5112978;28;20048;-87
2022/07/12 03:44:16;;;;;;;0.00;0.00;;;;;;;;;;5112970;28;20039;-87
2022/07/12 03:46:42;;;;;;;0.00;0.00;;;;;;;;;;5114230;28;20043;-87
2022/07/12 03:49:08;;;;;;;0.00;0.00;;;;;;;;;;5095667;28;20137;-88
2022/07/12 03:51:34;;;;;;;0.00;0.00;;;;;;;;;;5112906;28;20093;-88
2022/07/12 03:54:00;;;;;;;0.00;0.00;;;;;;;;;;5112528;28;20042;-87
2022/07/12 03:59:10;;;;;;;0.00;0.00;;;;;;;;;;5113871;28;20047;-88
2022/07/12 04:01:36;;;;;;;0.00;0.00;;;;;;;;;;5112524;28;20050;-89
2022/07/12 04:04:02;;;;;;;0.00;0.00;;;;;;;;;;5113812;28;20494;-87
2022/07/12 04:06:29;;;;;;;0.00;0.00;;;;;;;;;;5112631;28;20075;-88
2022/07/12 04:08:55;;;;;;;0.00;0.00;;;;;;;;;;5112244;28;20356;-88
2022/07/12 04:11:21;;;;;;;0.00;0.00;;;;;;;;;;5112599;28;20051;-87
2022/07/12 04:13:47;;;;;;;0.00;0.00;;;;;;;;;;5112911;28;20035;-88
2022/07/12 04:16:13;;;;;;;0.00;0.00;;;;;;;;;;5112591;28;20028;-87
2022/07/12 04:18:39;;;;;;;0.00;0.00;;;;;;;;;;5112095;28;20421;-87
2022/07/12 04:21:05;;;;;;;0.00;0.00;;;;;;;;;;5113713;28;20031;-87
2022/07/12 04:23:31;;;;;;;0.00;0.00;;;;;;;;;;5112098;28;20051;-87
2022/07/12 04:25:58;;;;;;;0.00;0.00;;;;;;;;;;5112160;28;20055;-87
2022/07/12 04:28:24;;;;;;;0.00;0.00;;;;;;;;;;5112160;28;20043;-88
2022/07/12 04:30:50;;;;;;;0.00;0.00;;;;;;;;;;5112402;28;20107;-87
2022/07/12 04:33:16;;;;;;;0.00;0.00;;;;;;;;;;5112144;28;20470;-88
2022/07/12 04:35:42;;;;;;;0.00;0.00;;;;;;;;;;5112325;28;20043;-88
2022/07/12 04:38:08;;;;;;;0.00;0.00;;;;;;;;;;5111860;28;20043;-88
2022/07/12 04:40:34;;;;;;;0.00;0.00;;;;;;;;;;5111930;28;20050;-88
2022/07/12 04:43:00;;;;;;;0.00;0.00;;;;;;;;;;5113173;28;20036;-89
2022/07/12 04:45:26;;;;;;;0.00;0.00;;;;;;;;;;5112107;28;20093;-89
2022/07/12 04:47:52;;;;;;;0.00;0.00;;;;;;;;;;5111844;28;20042;-88
2022/07/12 04:50:18;;;;;;;0.00;0.00;;;;;;;;;;5111737;28;20085;-88
2022/07/12 04:52:44;;;;;;;0.00;0.00;;;;;;;;;;5112212;28;20050;-88
2022/07/12 04:55:10;;;;;;;0.00;0.00;;;;;;;;;;5113031;28;20467;-88
2022/07/12 04:57:36;;;;;;;0.00;0.00;;;;;;;;;;5113244;28;20123;-88
2022/07/12 05:00:05;;;;;;;0.00;0.00;;;;;;;;;;5111859;28;20043;-87
2022/07/12 05:02:31;;;;;;;0.00;0.00;;;;;;;;;;5113019;28;20046;-87
2022/07/12 05:04:57;;;;;;;0.00;0.00;;;;;;;;;;5111934;28;20035;-89
2022/07/12 05:07:22;;;;;;;0.00;0.00;;;;;;;;;;5111879;28;20047;-89
2022/07/12 05:09:49;;;;;;;0.00;0.00;;;;;;;;;;5111517;28;20062;-89
2022/07/12 05:12:14;;;;;;;0.00;0.00;;;;;;;;;;5113305;28;20036;-87
2022/07/12 05:14:40;;;;;;;0.00;0.00;;;;;;;;;;5112929;28;20032;-88
2022/07/12 05:17:06;;;;;;;0.00;0.00;;;;;;;;;;5094895;28;20047;-87
2022/07/12 05:19:32;;;;;;;0.00;0.00;;;;;;;;;;5112915;28;20039;-89
2022/07/12 05:21:58;;;;;;;0.00;0.00;;;;;;;;;;5111752;28;20112;-88
2022/07/12 05:24:24;;;;;;;0.00;0.00;;;;;;;;;;5111707;28;20126;-88
2022/07/12 05:26:50;;;;;;;0.00;0.00;;;;;;;;;;5116371;28;20101;-89
2022/07/12 05:29:16;;;;;;;0.00;0.00;;;;;;;;;;5115434;28;20054;-87
2022/07/12 05:31:42;;;;;;;0.00;0.00;;;;;;;;;;5115593;28;20092;-88
2022/07/12 05:34:08;;;;;;;0.00;0.00;;;;;;;;;;5115585;28;20047;-88
2022/07/12 05:36:34;;;;;;;0.00;0.00;;;;;;;;;;5115585;28;20076;-88
2022/07/12 05:39:00;;;;;;;0.00;0.00;;;;;;;;;;5115316;28;20436;-88
2022/07/12 05:41:26;;;;;;;0.00;0.00;;;;;;;;;;5115259;28;20051;-87
2022/07/12 05:43:52;;;;;;;0.00;0.00;;;;;;;;;;5115329;28;20044;-90
2022/07/12 05:46:18;;;;;;;0.00;0.00;;;;;;;;;;5116354;28;20039;-89
2022/07/12 05:48:44;;;;;;;0.00;0.00;;;;;;;;;;5116515;27;20371;-89
2022/07/12 05:53:54;;;;;;;0.00;0.00;;;;;;;;;;5116212;28;20039;-88
2022/07/12 05:56:20;;;;;;;0.00;0.00;;;;;;;;;;5115132;28;20046;-88
2022/07/12 05:58:46;;;;;;;0.00;0.00;;;;;;;;;;5114966;28;20039;-88
2022/07/12 06:01:12;;;;;;;0.00;0.00;;;;;;;;;;5114772;28;20574;-88
2022/07/12 06:03:38;;;;;;;0.00;0.00;;;;;;;;;;5114936;28;20051;-89
2022/07/12 06:06:04;;;;;;;0.00;0.00;;;;;;;;;;5114584;28;20448;-88
2022/07/12 06:08:30;;;;;;;0.00;0.00;;;;;;;;;;5116241;28;20036;-89
2022/07/12 06:10:56;;;;;;;0.00;0.00;;;;;;;;;;5116069;28;20118;-90
2022/07/12 06:13:22;;;;;;;0.00;0.00;;;;;;;;;;5114649;28;20122;-88
2022/07/12 06:15:48;;;;;;;0.00;0.00;;;;;;;;;;5116034;28;20078;-89
2022/07/12 06:18:14;;;;;;;0.00;0.00;;;;;;;;;;5097561;28;20050;-89
2022/07/12 06:20:40;;;;;;;0.00;0.00;;;;;;;;;;5115689;28;20042;-90
2022/07/12 06:23:06;;;;;;;0.00;0.00;;;;;;;;;;5115012;28;20076;-90
2022/07/12 06:25:32;;;;;;;0.00;0.00;;;;;;;;;;5114214;28;20051;-90
2022/07/12 06:28:01;;;;;;;0.00;0.00;;;;;;;;;;5114790;28;20520;-91
2022/07/12 06:30:27;;;;;;;0.00;0.00;;;;;;;;;;5114317;28;20079;-87
2022/07/12 06:32:53;;;;;;;0.00;0.00;;;;;;;;;;5114575;28;20062;-90
2022/07/12 06:35:19;;;;;;;0.00;0.00;;;;;;;;;;5097816;28;20502;-88
2022/07/12 06:37:45;;;;;;;0.00;0.00;;;;;;;;;;5104163;28;20097;-88
2022/07/12 06:40:12;;;;;;;0.00;0.00;;;;;;;;;;5114738;28;20461;-88
2022/07/12 06:42:38;;;;;;;0.00;0.00;;;;;;;;;;5107339;28;20109;-90
2022/07/12 06:45:04;;;;;;;1.35;0.10;;;;;;;;;;5093890;28;20054;-90
2022/07/12 06:47:30;;;;;;;0.00;0.00;;;;;;;;;;5102514;28;20040;-84
2022/07/12 06:49:57;;;;;;;0.00;0.00;;;;;;;;;;5113763;28;20428;-86
2022/07/12 06:52:23;;;;;;;0.00;0.00;;;;;;;;;;5113926;28;20046;-82
2022/07/12 06:54:49;;;;;;;0.00;0.00;;;;;;;;;;5113325;28;20454;-82
2022/07/12 06:57:15;;;;;;;0.00;0.00;;;;;;;;;;5093609;28;20068;-89
2022/07/12 06:59:41;;;;;;;0.00;0.00;;;;;;;;;;5109039;28;20406;-87
2022/07/12 07:02:07;;;;;;;0.00;0.00;;;;;;;;;;5113414;28;20073;-88
2022/07/12 07:04:33;;;;;;;0.00;0.00;;;;;;;;;;5113283;28;20040;-89
2022/07/12 07:06:59;;;;;;;0.00;0.00;;;;;;;;;;5113316;28;20041;-90
2022/07/12 07:09:25;;;;;;;0.00;0.00;;;;;;;;;;5113337;28;20118;-90
2022/07/12 07:11:51;;;;;;;0.70;0.00;;;;;;;;;;5113056;28;20040;-90
2022/07/12 07:14:17;;;;;;;0.00;0.00;;;;;;;;;;5113162;28;20040;-90
2022/07/12 07:16:43;;;;;;;0.00;0.00;;;;;;;;;;5112900;28;20062;-88
2022/07/12 07:19:09;;;;;;;0.00;0.00;;;;;;;;;;5111905;28;20040;-89
2022/07/12 07:21:35;;;;;;;0.00;0.00;;;;;;;;;;5085234;28;20039;-89
2022/07/12 07:24:03;;;;;;;0.00;0.00;;;;;;;;;;5114060;27;20072;-89
2022/07/12 07:26:30;;;;;;;0.00;0.00;;;;;;;;;;5113848;28;20048;-90
2022/07/12 07:31:41;;;;;;;0.00;0.00;;;;;;;;;;5114011;28;20035;-88
2022/07/12 07:34:07;;;;;;;0.00;0.00;;;;;;;;;;5114281;28;20120;-90
2022/07/12 07:36:33;;;;;;;0.00;0.00;;;;;;;;;;5112584;28;20055;-88
2022/07/12 07:38:59;;;;;;;0.00;0.00;;;;;;;;;;5095582;28;20066;-89
2022/07/12 07:41:25;;;;;;;0.00;0.00;;;;;;;;;;5107399;28;20043;-89
2022/07/12 07:43:51;;;;;;;0.00;0.00;;;;;;;;;;5099672;28;20117;-88
2022/07/12 07:46:17;;;;;;;0.00;0.00;;;;;;;;;;5098517;28;20043;-89
2022/07/12 07:48:43;;;;;;;0.00;0.00;;;;;;;;;;5111811;28;20505;-89
2022/07/12 07:51:09;;;;;;;0.00;0.00;;;;;;;;;;5113469;28;20074;-88
2022/07/12 07:53:36;;;;;;;0.00;0.00;;;;;;;;;;5084868;28;20453;-92
2022/07/12 07:56:02;;;;;;;0.30;0.20;;;;;;;;;;5093463;28;20073;-90
2022/07/12 07:58:28;;;;;;;0.10;0.00;;;;;;;;;;5094127;28;20043;-90
2022/07/12 08:00:54;;;;;;;0.00;0.00;;;;;;;;;;5098537;28;20048;-89
2022/07/12 08:03:21;;;;;;;0.00;0.00;;;;;;;;;;5092460;28;20497;-88
2022/07/12 08:05:47;;;;;;;0.00;0.00;;;;;;;;;;5075746;28;20482;-91
2022/07/12 08:08:13;;;;;;;0.00;0.00;;;;;;;;;;5076173;28;20472;-93
2022/07/12 08:10:39;;;;;;;0.00;0.00;;;;;;;;;;5093493;28;20040;-92
2022/07/12 08:13:06;;;;;;;0.00;0.00;;;;;;;;;;5095095;28;20122;-91
2022/07/12 08:15:32;;;;;;;0.00;0.00;;;;;;;;;;5092981;28;20046;-91
2022/07/12 08:17:58;;;;;;;0.00;0.00;;;;;;;;;;5093872;28;20093;-90
2022/07/12 08:20:25;;;;;;;0.00;0.00;;;;;;;;;;5092335;28;20483;-92
2022/07/12 08:22:50;;;;;;;0.00;0.00;;;;;;;;;;5092950;28;20048;-93
2022/07/12 08:25:16;;;;;;;0.00;0.00;;;;;;;;;;5093581;28;20097;-90
2022/07/12 08:27:43;;;;;;;0.00;0.00;;;;;;;;;;5092471;28;20056;-91
2022/07/12 08:30:10;;;;;;;0.00;0.00;;;;;;;;;;5092803;28;20040;-92
2022/07/12 08:32:36;;;;;;;0.00;0.00;;;;;;;;;;5094627;28;20036;-90
2022/07/12 08:35:03;;;;;;;0.00;0.00;;;;;;;;;;5095286;28;20046;-92
2022/07/12 08:37:29;;;;;;;0.00;0.00;;;;;;;;;;5094678;28;20040;-86
2022/07/12 08:39:55;;;;;;;0.00;0.00;;;;;;;;;;5073936;28;20043;-87
2022/07/12 08:42:21;;;;;;;0.00;0.00;;;;;;;;;;5091778;28;20486;-85
2022/07/12 08:44:59;;;;;;;0.00;0.00;;;;;;;;;;5074793;28;20039;-86
2022/07/12 08:47:25;;;;;;;0.00;0.00;;;;;;;;;;5091183;28;20050;-87
2022/07/12 08:50:11;;;;;;;0.00;0.00;;;;;;;;;;5091443;28;20475;-87
2022/07/12 08:52:41;;;;;;;0.00;0.00;;;;;;;;;;5074783;28;20417;-88
2022/07/12 08:55:26;;;;;;;0.00;0.00;;;;;;;;;;5091451;28;20068;-85
2022/07/12 08:57:54;;;;;;;0.00;0.00;;;;;;;;;;5091343;28;20068;-87
2022/07/12 09:00:20;;;;;;;0.00;0.00;;;;;;;;;;5095993;28;20270;-86
2022/07/12 09:02:56;;;;;;;0.00;0.00;;;;;;;;;;5095313;28;20097;-87
2022/07/12 09:05:27;;;;;;;0.00;0.00;;;;;;;;;;5079018;28;20467;-86
2022/07/12 09:08:02;;;;;;;0.00;0.00;;;;;;;;;;5095310;28;20102;-86
2022/07/12 09:10:28;;;;;;;0.00;0.00;;;;;;;;;;5095329;28;20425;-87
2022/07/12 09:12:54;;;;;;;0.00;0.00;;;;;;;;;;5095243;28;20058;-85
2022/07/12 09:15:23;;;;;;;0.00;0.00;;;;;;;;;;5095725;28;20044;-87
2022/07/12 09:18:12;;;;;;;0.00;0.00;;;;;;;;;;5096368;28;20040;-86
2022/07/12 09:20:39;;;;;;;0.00;0.00;;;;;;;;;;5095380;28;20128;-87
2022/07/12 09:23:06;;;;;;;0.00;0.00;;;;;;;;;;5095070;28;20055;-86
2022/07/12 09:25:32;;;;;;;0.00;0.00;;;;;;;;;;5110386;28;20129;-86
2022/07/12 09:27:59;;;;;;;0.00;0.00;;;;;;;;;;5116773;28;20124;-82
2022/07/12 09:30:28;;;;;;;0.00;0.00;;;;;;;;;;5115364;28;20039;-87
2022/07/12 09:38:27;;;;;;;0.00;0.00;;;;;;;;;;5116744;28;20039;-86
2022/07/12 09:40:55;;;;;;;0.00;0.00;;;;;;;;;;5115199;28;20552;-87
2022/07/12 09:43:22;;;;;;;0.00;0.00;;;;;;;;;;5116372;28;20078;-87
2022/07/12 09:45:49;;;;;;;0.00;0.00;;;;;;;;;;5116608;28;20039;-86
2022/07/12 09:48:15;;;;;;;0.00;0.00;;;;;;;;;;5116338;28;20043;-85
2022/07/12 09:50:42;;;;;;;0.00;0.00;;;;;;;;;;5115518;28;20471;-89
2022/07/12 09:53:10;;;;;;;0.00;0.00;;;;;;;;;;5115114;28;20080;-91
2022/07/12 09:55:38;;;;;;;0.00;0.00;;;;;;;;;;5116313;28;20443;-89
2022/07/12 09:58:05;;;;;;;0.00;0.00;;;;;;;;;;5115095;28;20152;-89
2022/07/12 10:00:31;;;;;;;0.00;0.00;;;;;;;;;;5115236;28;20132;-88
2022/07/12 10:02:58;;;;;;;0.00;0.00;;;;;;;;;;5116083;28;20128;-89
2022/07/12 10:05:25;;;;;;;0.00;0.00;;;;;;;;;;5115091;28;20099;-92
2022/07/12 10:07:51;;;;;;;0.00;0.00;;;;;;;;;;5115512;28;20043;-87
2022/07/12 10:10:18;;;;;;;0.00;0.00;;;;;;;;;;5115757;28;20043;-87
2022/07/12 10:12:44;;;;;;;0.00;0.00;;;;;;;;;;5114149;28;20067;-89
2022/07/12 10:15:16;;;;;;;0.00;0.00;;;;;;;;;;5114874;28;20126;-88
2022/07/12 10:17:44;;;;;;;0.00;0.00;;;;;;;;;;5114678;28;20043;-86
2022/07/12 10:20:24;;;;;;;0.00;0.00;;;;;;;;;;5113475;28;20500;-88
2022/07/12 10:22:53;;;;;;;0.00;0.00;;;;;;;;;;5114218;28;20122;-88
2022/07/12 10:25:26;;;;;;;0.00;0.00;;;;;;;;;;5115327;28;20063;-87
2022/07/12 10:27:52;;;;;;;0.00;0.00;;;;;;;;;;5114029;28;20131;-88
2022/07/12 10:30:19;;;;;;;0.00;0.00;;;;;;;;;;5114492;28;20110;-87
2022/07/12 10:32:45;;;;;;;0.00;0.00;;;;;;;;;;5114168;28;20036;-87
2022/07/12 10:35:17;;;;;;;0.00;0.00;;;;;;;;;;5114416;28;20119;-86
2022/07/12 10:38:03;;;;;;;0.00;0.00;;;;;;;;;;5114162;28;20051;-89
2022/07/12 10:40:34;;;;;;;0.00;0.00;;;;;;;;;;5115251;28;20097;-90
2022/07/12 10:43:07;;;;;;;0.00;0.00;;;;;;;;;;5114018;28;20065;-89
2022/07/12 10:45:40;;;;;;;0.00;0.00;;;;;;;;;;5114296;28;20070;-90
2022/07/12 10:48:07;;;;;;;0.00;0.00;;;;;;;;;;5113668;28;20051;-88
2022/07/12 10:50:45;;;;;;;0.00;0.00;;;;;;;;;;5113869;28;20086;-88
2022/07/12 10:53:23;;;;;;;0.00;0.00;;;;;;;;;;5115082;28;20036;-90
2022/07/12 10:56:04;;;;;;;0.00;0.00;;;;;;;;;;5113815;28;20555;-87
2022/07/12 10:58:33;;;;;;;0.00;0.00;;;;;;;;;;5113527;28;20043;-88
2022/07/12 11:01:03;;;;;;;0.00;0.00;;;;;;;;;;5113641;28;20402;-88
2022/07/12 11:03:52;;;;;;;0.00;0.00;;;;;;;;;;5114942;28;20043;-88
2022/07/12 11:06:20;;;;;;;0.00;0.00;;;;;;;;;;5100974;28;20109;-89
2022/07/12 11:08:49;;;;;;;0.00;0.00;;;;;;;;;;5113477;28;20118;-87
2022/07/12 11:11:15;;;;;;;0.00;0.00;;;;;;;;;;5113387;28;20039;-89
2022/07/12 11:13:41;;;;;;;0.00;0.00;;;;;;;;;;5113363;28;20043;-88
2022/07/12 11:16:07;;;;;;;0.00;0.00;;;;;;;;;;5113762;28;20137;-87
2022/07/12 11:18:34;;;;;;;0.00;0.00;;;;;;;;;;5114700;28;20099;-90
2022/07/12 11:21:01;;;;;;;0.00;0.00;;;;;;;;;;5113426;28;20145;-88
2022/07/12 11:23:27;;;;;;;0.00;0.00;;;;;;;;;;5113405;28;20122;-88
2022/07/12 11:25:57;;;;;;;0.00;0.00;;;;;;;;;;5113098;28;20227;-90
2022/07/12 11:28:28;;;;;;;0.00;0.00;;;;;;;;;;5113006;28;20487;-87
2022/07/12 11:30:54;;;;;;;0.00;0.00;;;;;;;;;;5114582;28;20050;-87
2022/07/12 11:33:25;;;;;;;0.00;0.00;;;;;;;;;;5096059;28;20042;-87
2022/07/12 11:35:52;;;;;;;0.00;0.00;;;;;;;;;;5114393;28;20113;-87
2022/07/12 11:38:28;;;;;;;0.00;0.00;;;;;;;;;;5112908;28;20493;-87
2022/07/12 11:41:01;;;;;;;0.00;0.00;;;;;;;;;;5114378;28;20043;-88
2022/07/12 11:43:28;;;;;;;0.00;0.00;;;;;;;;;;5112701;28;20050;-88
2022/07/12 11:45:54;;;;;;;0.00;0.00;;;;;;;;;;5113140;28;20039;-87
2022/07/12 11:48:21;;;;;;;0.00;0.00;;;;;;;;;;5095491;28;20043;-89
2022/07/12 11:50:47;;;;;;;0.00;0.00;;;;;;;;;;5112962;28;20040;-87
2022/07/12 11:53:23;;;;;;;0.00;0.00;;;;;;;;;;5112730;28;20031;-88
2022/07/12 11:55:51;;;;;;;0.32;0.30;;;;;;;;;;5114155;28;20043;-87
2022/07/12 11:58:17;;;;;;;0.00;0.00;;;;;;;;;;5112650;28;20043;-87
2022/07/12 12:00:44;;;;;;;0.00;0.00;;;;;;;;;;5112742;28;20084;-87
2022/07/12 12:03:10;;;;;;;0.22;0.00;;;;;;;;;;5112376;28;20047;-87
2022/07/12 12:05:37;;;;;;;0.00;0.00;;;;;;;;;;5112739;28;20046;-86
2022/07/12 12:08:03;;;;;;;0.00;0.00;;;;;;;;;;5112147;28;20482;-87
2022/07/12 12:10:30;;;;;;;0.00;0.00;;;;;;;;;;5113869;28;20094;-86
2022/07/12 12:12:56;;;;;;;0.00;0.00;;;;;;;;;;5112194;28;20043;-87
2022/07/12 12:15:27;;;;;;;0.00;0.00;;;;;;;;;;5112449;28;20039;-86
2022/07/12 12:17:58;;;;;;;0.00;0.00;;;;;;;;;;5113279;28;20047;-88
2022/07/12 12:20:28;;;;;;;0.00;0.00;;;;;;;;;;5112467;28;20051;-88
2022/07/12 12:22:55;;;;;;;0.00;0.00;;;;;;;;;;5112233;28;20047;-87
2022/07/12 12:25:22;;;;;;;0.00;0.00;;;;;;;;;;5112321;28;20062;-85
2022/07/12 12:27:54;;;;;;;0.00;0.00;;;;;;;;;;5111850;28;20540;-88
2022/07/12 12:30:20;;;;;;;0.00;0.00;;;;;;;;;;5112389;28;20043;-87
2022/07/12 12:32:47;;;;;;;0.00;0.00;;;;;;;;;;5112285;28;20483;-88
2022/07/12 12:35:13;;;;;;;0.00;0.00;;;;;;;;;;5112017;28;20055;-88
2022/07/12 12:37:40;;;;;;;0.00;0.00;;;;;;;;;;5113468;28;20032;-86
2022/07/12 12:40:06;;;;;;;0.00;0.00;;;;;;;;;;5113310;28;20066;-87
2022/07/12 12:42:32;;;;;;;0.00;0.00;;;;;;;;;;5113460;28;20040;-88
2022/07/12 12:44:58;;;;;;;0.00;0.00;;;;;;;;;;5112110;28;20039;-89
2022/07/12 12:47:30;;;;;;;0.00;0.00;;;;;;;;;;5112002;28;20044;-88
2022/07/12 12:50:02;;;;;;;0.00;0.00;;;;;;;;;;5113247;28;20067;-89
2022/07/12 12:52:31;;;;;;;0.00;0.00;;;;;;;;;;5111935;28;20101;-88
2022/07/12 12:54:58;;;;;;;0.00;0.00;;;;;;;;;;5111701;28;20044;-88
2022/07/12 12:57:25;;;;;;;0.00;0.00;;;;;;;;;;5112247;28;20050;-86
2022/07/12 12:59:52;;;;;;;0.00;0.00;;;;;;;;;;5112899;28;20044;-87
2022/07/12 13:02:19;;;;;;;0.00;0.00;;;;;;;;;;5111762;28;20042;-88
2022/07/12 13:04:45;;;;;;;0.00;0.00;;;;;;;;;;5094880;28;20398;-88
2022/07/12 13:07:11;;;;;;;0.00;0.00;;;;;;;;;;5111978;28;20450;-86
2022/07/12 13:09:37;;;;;;;0.00;0.00;;;;;;;;;;5111500;28;20120;-88
2022/07/12 13:12:04;;;;;;;0.00;0.00;;;;;;;;;;5112973;28;20075;-88
2022/07/12 13:14:30;;;;;;;0.00;0.00;;;;;;;;;;5111548;28;20492;-88
2022/07/12 13:16:56;;;;;;;0.00;0.00;;;;;;;;;;5112979;28;20479;-87
2022/07/12 13:19:22;;;;;;;0.00;0.00;;;;;;;;;;5111588;28;20505;-87
2022/07/12 13:21:48;;;;;;;0.00;0.00;;;;;;;;;;5113091;28;20050;-88
2022/07/12 13:24:14;;;;;;;0.00;0.00;;;;;;;;;;5111657;28;20115;-86
2022/07/12 13:26:40;;;;;;;0.00;0.00;;;;;;;;;;5111523;28;20127;-87
2022/07/12 13:29:06;;;;;;;0.00;0.00;;;;;;;;;;5113016;28;20044;-88
2022/07/12 13:31:32;;;;;;;0.00;0.00;;;;;;;;;;5111443;28;20051;-88
2022/07/12 13:33:58;;;;;;;0.00;0.00;;;;;;;;;;5112818;28;20065;-89
2022/07/12 13:36:24;;;;;;;0.00;0.00;;;;;;;;;;5111892;28;20039;-87
2022/07/12 13:38:50;;;;;;;0.00;0.00;;;;;;;;;;5111651;28;20524;-88
2022/07/12 13:41:16;;;;;;;0.00;0.00;;;;;;;;;;5111366;28;20081;-88
2022/07/12 13:43:42;;;;;;;0.00;0.00;;;;;;;;;;5112798;28;20043;-88
2022/07/12 13:46:08;;;;;;;0.00;0.00;;;;;;;;;;5112596;28;20039;-88
2022/07/12 13:48:34;;;;;;;0.00;0.00;;;;;;;;;;5116441;28;20538;-88
2022/07/12 13:51:00;;;;;;;0.00;0.00;;;;;;;;;;5115218;28;20054;-88
2022/07/12 13:53:26;;;;;;;0.00;0.00;;;;;;;;;;5116674;28;20379;-87
2022/07/12 13:55:52;;;;;;;0.00;0.00;;;;;;;;;;5116246;28;20031;-88
2022/07/12 13:58:18;;;;;;;0.00;0.00;;;;;;;;;;5116562;28;20079;-87
2022/07/12 14:00:44;;;;;;;0.00;0.00;;;;;;;;;;5112019;28;20066;-88
2022/07/12 14:03:10;;;;;;;0.00;0.00;;;;;;;;;;5116377;28;20042;-87
2022/07/12 14:05:37;;;;;;;0.00;0.00;;;;;;;;;;5116118;28;20047;-88
2022/07/12 14:08:03;;;;;;;0.00;0.00;;;;;;;;;;5114722;28;20418;-87
2022/07/12 14:10:29;;;;;;;0.00;0.00;;;;;;;;;;5114738;28;20058;-90
2022/07/12 14:12:55;;;;;;;0.00;0.00;;;;;;;;;;5116384;28;20093;-92
2022/07/12 14:15:36;;;;;;;0.00;0.00;;;;;;;;;;5116436;28;20044;-93
2022/07/12 14:18:04;;;;;;;0.00;0.00;;;;;;;;;;5119582;28;20205;-91
2022/07/12 14:20:30;;;;;;;0.00;0.00;;;;;;;;;;5116003;28;20039;-92
2022/07/12 14:22:56;;;;;;;0.00;0.00;;;;;;;;;;5116290;28;20044;-93
2022/07/12 14:25:22;;;;;;;0.00;0.00;;;;;;;;;;5116539;28;20115;-93
2022/07/12 14:27:48;;;;;;;0.00;0.00;;;;;;;;;;5117471;28;20391;-92
2022/07/12 14:30:14;;;;;;;0.00;0.00;;;;;;;;;;5117580;28;20477;-93
2022/07/12 14:32:41;;;;;;;0.00;0.00;;;;;;;;;;5117485;28;20048;-95
2022/07/12 14:35:08;;;;;;;0.00;0.00;;;;;;;;;;5117312;28;20036;-90
2022/07/12 14:37:34;;;;;;;0.00;0.00;;;;;;;;;;5116429;28;20044;-92
2022/07/12 14:40:00;;;;;;;0.00;0.00;;;;;;;;;;5118544;28;20058;-93
2022/07/12 14:42:26;;;;;;;0.00;0.00;;;;;;;;;;5120333;28;20047;-94
2022/07/12 14:44:52;;;;;;;0.00;0.00;;;;;;;;;;5118248;28;20048;-94
2022/07/12 14:47:18;;;;;;;0.00;0.00;;;;;;;;;;5117656;28;20040;-92
2022/07/12 14:49:45;;;;;;;0.00;0.00;;;;;;;;;;5118313;28;20192;-94
2022/07/12 14:52:11;;;;;;;0.00;0.00;;;;;;;;;;5116866;28;20043;-94
2022/07/12 14:54:37;;;;;;;0.00;0.00;;;;;;;;;;5115474;28;20488;-91
2022/07/12 14:57:05;;;;;;;0.00;0.00;;;;;;;;;;5114362;28;20443;-94